Time;durP1;ratioP1;P1;durP2;ratioP2;P2;SDS_P1;SDS_P2;PMS_P1;PMS_P2;Temp;Humidity;BMP_temperature;BMP_pressure;BME280_temperature;BME280_humidity;BME280_pressure;Samples;Min_cycle;Max_cycle;Signal;HPM_P1;HPM_P2
2022/11/27 00:01:33;;;;;;;6.88;3.10;;;;;;;5.34;98.05;102455.50;4994313;28;20035;-83
2022/11/27 00:03:59;;;;;;;7.65;2.97;;;;;;;5.29;97.85;102444.16;4995512;28;20030;-82
2022/11/27 00:06:26;;;;;;;6.65;2.95;;;;;;;5.29;97.95;102452.78;4996265;28;20028;-82
2022/11/27 00:08:52;;;;;;;9.38;2.95;;;;;;;5.36;97.87;102444.41;4995771;28;20085;-82
2022/11/27 00:11:21;;;;;;;7.82;3.28;;;;;;;5.26;98.20;102444.97;4996266;28;20026;-83
2022/11/27 00:13:48;;;;;;;6.43;3.10;;;;;;;5.21;98.10;102447.38;4996252;28;20027;-82
2022/11/27 00:16:14;;;;;;;4.88;2.60;;;;;;;5.19;98.21;102449.03;4995324;28;20026;-82
2022/11/27 00:18:39;;;;;;;6.68;2.90;;;;;;;5.16;97.98;102440.34;4996158;28;20045;-82
2022/11/27 00:21:11;;;;;;;5.82;2.70;;;;;;;5.12;98.12;102439.38;4995607;28;20100;-82
2022/11/27 00:23:37;;;;;;;4.45;2.50;;;;;;;5.08;98.13;102446.09;4995212;28;20033;-82
2022/11/27 00:26:03;;;;;;;3.15;2.28;;;;;;;5.06;98.16;102440.03;4995576;28;20383;-82
2022/11/27 00:28:29;;;;;;;3.90;2.45;;;;;;;5.02;98.15;102430.44;4996040;28;20437;-83
2022/11/27 00:31:02;;;;;;;5.25;2.50;;;;;;;4.98;98.27;102425.16;4995105;28;20026;-83
2022/11/27 00:33:27;;;;;;;5.70;2.70;;;;;;;4.93;98.20;102423.28;4995963;28;20129;-83
2022/11/27 00:35:54;;;;;;;7.72;2.70;;;;;;;4.92;98.29;102420.69;4995666;28;20054;-83
2022/11/27 00:38:19;;;;;;;6.95;2.90;;;;;;;4.88;98.59;102405.94;4995019;28;20388;-83
2022/11/27 00:40:46;;;;;;;8.65;3.10;;;;;;;4.84;98.71;102402.41;4995383;28;20045;-82
2022/11/27 00:43:12;;;;;;;6.80;2.90;;;;;;;4.82;98.56;102413.47;4995505;28;20497;-82
2022/11/27 00:45:37;;;;;;;5.38;2.65;;;;;;;4.79;98.57;102415.13;4994857;28;20026;-82
2022/11/27 00:48:02;;;;;;;7.65;2.80;;;;;;;4.78;98.62;102415.06;4995695;28;20023;-82
2022/11/27 00:50:30;;;;;;;6.50;2.72;;;;;;;4.75;98.60;102408.09;4994813;28;20498;-83
2022/11/27 00:52:59;;;;;;;4.22;2.40;;;;;;;4.73;98.62;102409.75;4994532;28;20478;-83
2022/11/27 00:55:25;;;;;;;7.38;2.75;;;;;;;4.70;98.70;102407.09;4995122;28;20471;-83
2022/11/27 00:57:50;;;;;;;6.22;2.80;;;;;;;4.70;98.52;102401.06;4995326;28;20109;-83
2022/11/27 01:00:16;;;;;;;6.25;2.83;;;;;;;4.68;98.72;102401.00;4994295;28;20113;-82
2022/11/27 01:02:42;;;;;;;7.57;2.88;;;;;;;4.68;98.50;102390.72;4994747;28;20384;-82
2022/11/27 01:05:07;;;;;;;7.53;2.70;;;;;;;4.64;98.78;102386.28;4994334;28;20025;-82
2022/11/27 01:07:32;;;;;;;6.68;3.20;;;;;;;4.61;98.84;102381.94;4995318;28;20085;-82
2022/11/27 01:09:58;;;;;;;8.85;3.35;;;;;;;4.58;98.60;102380.94;4995257;28;20033;-83
2022/11/27 01:12:23;;;;;;;9.00;3.30;;;;;;;4.56;98.51;102380.88;4993437;28;20779;-83
2022/11/27 01:14:48;;;;;;;8.48;3.30;;;;;;;4.55;98.79;102384.31;4994981;28;20041;-82
2022/11/27 01:17:14;;;;;;;6.18;3.13;;;;;;;4.52;98.62;102379.03;4994639;28;20045;-83
2022/11/27 01:19:39;;;;;;;8.98;3.15;;;;;;;4.49;98.79;102371.22;4994183;28;20089;-82
2022/11/27 01:22:04;;;;;;;8.85;3.50;;;;;;;4.44;98.85;102365.06;4994552;28;20081;-82
2022/11/27 01:24:30;;;;;;;5.60;2.85;;;;;;;4.42;98.93;102366.69;4994902;28;20038;-83
2022/11/27 01:26:55;;;;;;;5.10;2.80;;;;;;;4.42;98.96;102374.41;4994612;28;20073;-83
2022/11/27 01:29:20;;;;;;;8.10;3.33;;;;;;;4.37;99.45;102370.78;4995280;28;20026;-82
2022/11/27 01:31:45;;;;;;;6.93;3.20;;;;;;;4.31;98.86;102371.44;4995069;28;20030;-83
2022/11/27 01:34:16;;;;;;;5.75;3.08;;;;;;;4.30;99.25;102373.16;4993924;28;20056;-83
2022/11/27 01:36:42;;;;;;;6.03;2.97;;;;;;;4.30;98.95;102368.00;4994600;28;20475;-82
2022/11/27 01:39:13;;;;;;;6.05;2.90;;;;;;;4.30;99.08;102352.59;4994523;28;20070;-82
2022/11/27 01:41:41;;;;;;;7.93;3.40;;;;;;;4.30;99.05;102347.44;4993823;28;20394;-82
2022/11/27 01:44:24;;;;;;;5.70;2.90;;;;;;;4.29;99.21;102340.56;4994287;28;20523;-82
2022/11/27 01:46:58;;;;;;;11.10;3.80;;;;;;;4.33;99.20;102346.69;4994565;28;20026;-82
2022/11/27 01:49:30;;;;;;;8.15;3.40;;;;;;;4.26;99.17;102345.59;4993316;28;20106;-82
2022/11/27 01:52:00;;;;;;;9.43;3.90;;;;;;;4.26;99.32;102337.88;4994275;28;20034;-83
2022/11/27 01:54:31;;;;;;;11.38;4.10;;;;;;;4.30;99.57;102342.31;4992993;28;20041;-82
2022/11/27 01:57:02;;;;;;;12.40;4.15;;;;;;;4.26;99.27;102329.31;4994114;28;20038;-83
2022/11/27 01:59:27;;;;;;;11.68;4.38;;;;;;;4.24;99.61;102313.81;4994101;28;20030;-83
2022/11/27 02:01:53;;;;;;;10.40;4.05;;;;;;;4.24;99.64;102312.94;4993155;28;20061;-83
2022/11/27 02:04:18;;;;;;;11.77;4.68;;;;;;;4.22;99.47;102299.16;4993982;28;20539;-83
2022/11/27 02:06:43;;;;;;;12.32;4.90;;;;;;;4.20;99.23;102300.81;4994087;28;20030;-83
2022/11/27 02:09:09;;;;;;;13.52;4.68;;;;;;;4.19;99.21;102297.38;4993367;28;20030;-82
2022/11/27 02:11:52;;;;;;;11.13;4.40;;;;;;;4.16;99.37;102295.59;4994028;28;20426;-83
2022/11/27 02:14:27;;;;;;;8.85;3.85;;;;;;;4.14;99.34;102288.63;4993740;28;20105;-83
2022/11/27 02:17:04;;;;;;;8.25;3.60;;;;;;;4.14;99.33;102283.47;4993452;28;20081;-83
2022/11/27 02:19:53;;;;;;;8.35;4.00;;;;;;;4.15;98.88;102278.41;4994283;28;20125;-82
2022/11/27 02:22:37;;;;;;;10.98;4.13;;;;;;;4.12;98.97;102272.25;4993671;28;20026;-83
2022/11/27 02:25:05;;;;;;;9.90;4.40;;;;;;;4.11;98.95;102266.28;4993602;28;20073;-82
2022/11/27 02:27:49;;;;;;;9.55;3.78;;;;;;;4.09;99.17;102267.03;4993756;28;20027;-82
2022/11/27 02:30:14;;;;;;;15.15;5.03;;;;;;;4.14;98.63;102263.81;4992590;28;20022;-82
2022/11/27 02:32:48;;;;;;;9.88;4.20;;;;;;;4.08;98.73;102263.59;4993820;28;20613;-82
2022/11/27 02:35:18;;;;;;;10.45;4.25;;;;;;;4.07;98.62;102266.13;4993594;28;20487;-82
2022/11/27 02:37:55;;;;;;;8.52;4.07;;;;;;;4.04;98.94;102255.72;4992787;28;20033;-83
2022/11/27 02:40:26;;;;;;;;;;;;;;;4.00;99.01;102262.44;4993593;28;20574;-83
2022/11/27 02:42:56;;;;;;;9.63;3.80;;;;;;;4.00;98.54;102254.75;4993853;28;19920;-82
2022/11/27 02:45:28;;;;;;;14.20;4.35;;;;;;;4.00;98.30;102255.59;4992673;28;20387;-83
2022/11/27 02:47:55;;;;;;;13.82;4.68;;;;;;;3.98;98.63;102253.81;4993747;28;20034;-82
2022/11/27 02:50:23;;;;;;;11.90;4.78;;;;;;;3.96;98.57;102247.75;4992948;28;20022;-83
2022/11/27 02:52:53;;;;;;;13.90;4.53;;;;;;;3.93;98.73;102253.66;4992762;28;20030;-82
2022/11/27 02:55:22;;;;;;;13.40;4.53;;;;;;;3.98;98.49;102259.84;4992991;28;20022;-82
2022/11/27 02:57:51;;;;;;;11.38;4.18;;;;;;;4.00;98.51;102254.75;4992538;28;20052;-82
2022/11/27 03:00:17;;;;;;;10.90;4.47;;;;;;;4.02;98.37;102258.25;4993123;28;20054;-82
2022/11/27 03:02:49;;;;;;;13.52;4.68;;;;;;;4.00;98.32;102262.44;4993245;28;20026;-83
2022/11/27 03:05:19;;;;;;;8.73;4.03;;;;;;;3.96;98.47;102261.47;4992149;28;20113;-82
2022/11/27 03:07:55;;;;;;;11.38;4.00;;;;;;;3.98;98.36;102266.66;4993789;28;20390;-82
2022/11/27 03:10:30;;;;;;;8.45;3.85;;;;;;;3.96;98.49;102268.28;4993136;28;20022;-83
2022/11/27 03:12:57;;;;;;;8.15;3.80;;;;;;;3.96;98.20;102270.88;4992553;28;20459;-82
2022/11/27 03:15:24;;;;;;;10.82;3.90;;;;;;;3.99;98.22;102263.28;4993000;28;20061;-82
2022/11/27 03:18:16;;;;;;;10.77;3.88;;;;;;;3.99;98.18;102258.13;4993161;28;20026;-83
2022/11/27 03:20:44;;;;;;;10.63;4.30;;;;;;;4.04;97.70;102248.00;4992567;28;20069;-83
2022/11/27 03:23:10;;;;;;;9.80;3.97;;;;;;;4.00;98.04;102244.47;4992807;28;20038;-82
2022/11/27 03:25:35;;;;;;;9.38;3.90;;;;;;;4.08;97.97;102234.47;4993044;28;20022;-82
2022/11/27 03:28:04;;;;;;;8.50;3.75;;;;;;;4.03;98.15;102236.88;4992410;28;20032;-83
2022/11/27 03:30:32;;;;;;;7.15;3.70;;;;;;;4.04;98.16;102238.63;4993188;28;20022;-82
2022/11/27 03:32:57;;;;;;;6.63;3.40;;;;;;;4.06;98.14;102236.97;4992370;28;20022;-82
2022/11/27 03:35:25;;;;;;;7.63;3.70;;;;;;;4.07;98.06;102241.28;4993025;28;20089;-82
2022/11/27 03:37:52;;;;;;;7.32;3.22;;;;;;;4.08;98.11;102245.59;4996584;28;20022;-82
2022/11/27 03:40:18;;;;;;;;;;;;;;;4.10;98.26;102235.41;4996298;28;20073;-82
2022/11/27 03:42:50;;;;;;;6.53;3.20;;;;;;;4.12;97.97;102233.72;4996739;28;19945;-83
2022/11/27 03:45:36;;;;;;;7.47;3.38;;;;;;;4.12;97.79;102224.34;4996311;28;20036;-82
2022/11/27 03:48:18;;;;;;;11.55;4.20;;;;;;;4.23;97.12;102216.13;4995935;28;20479;-82
2022/11/27 03:51:06;;;;;;;9.35;4.07;;;;;;;4.18;97.49;102210.81;4996422;28;20026;-83
2022/11/27 03:53:31;;;;;;;8.90;3.78;;;;;;;4.16;97.42;102215.91;4996565;28;20033;-83
2022/11/27 03:56:05;;;;;;;8.85;3.70;;;;;;;4.16;97.05;102210.78;4996046;28;20026;-82
2022/11/27 03:58:35;;;;;;;8.63;3.67;;;;;;;4.22;97.03;102219.50;4996535;28;20069;-82
2022/11/27 04:01:03;;;;;;;7.78;3.80;;;;;;;4.18;97.11;102214.25;4995593;28;20105;-82
2022/11/27 04:03:29;;;;;;;10.55;3.90;;;;;;;4.23;96.94;102218.69;4996154;28;20061;-82
2022/11/27 04:05:55;;;;;;;10.63;3.70;;;;;;;4.27;97.03;102213.69;4996067;28;20022;-82
2022/11/27 04:08:20;;;;;;;6.65;3.40;;;;;;;4.26;97.16;102213.66;4995256;28;20027;-82
2022/11/27 04:10:46;;;;;;;7.78;3.38;;;;;;;4.26;97.13;102219.66;4996375;28;20062;-83
2022/11/27 04:13:11;;;;;;;9.30;3.60;;;;;;;4.33;96.95;102223.31;4995976;28;20026;-82
2022/11/27 04:15:37;;;;;;;7.70;3.58;;;;;;;4.30;97.14;102218.94;4995559;28;20033;-82
2022/11/27 04:18:02;;;;;;;6.85;3.20;;;;;;;4.30;97.13;102226.66;4995820;28;20424;-83
2022/11/27 04:20:28;;;;;;;6.95;3.25;;;;;;;4.37;96.83;102229.41;4995571;28;20038;-82
2022/11/27 04:22:54;;;;;;;7.60;3.25;;;;;;;4.36;96.85;102238.84;4995236;28;20057;-83
2022/11/27 04:25:20;;;;;;;6.93;3.38;;;;;;;4.36;96.71;102235.38;4995653;28;20049;-82
2022/11/27 04:27:45;;;;;;;8.40;3.65;;;;;;;4.38;96.62;102229.47;4996198;28;20034;-82
2022/11/27 04:30:11;;;;;;;6.97;3.28;;;;;;;4.39;96.75;102230.34;4994908;28;20481;-83
2022/11/27 04:32:36;;;;;;;10.45;3.40;;;;;;;4.40;96.34;102227.81;4995910;28;20037;-82
2022/11/27 04:35:02;;;;;;;5.72;3.22;;;;;;;4.41;96.67;102219.28;4996099;28;20026;-82
2022/11/27 04:37:27;;;;;;;7.63;3.30;;;;;;;4.40;96.53;102225.22;4995251;28;20045;-82
2022/11/27 04:39:52;;;;;;;5.82;3.10;;;;;;;4.47;96.61;102222.06;4995612;28;20078;-82
2022/11/27 04:42:17;;;;;;;5.97;3.17;;;;;;;4.42;96.61;102218.44;4995302;28;20034;-82
2022/11/27 04:44:43;;;;;;;6.20;2.97;;;;;;;4.55;96.28;102227.44;4995073;28;20027;-83
2022/11/27 04:47:08;;;;;;;8.18;3.33;;;;;;;4.44;96.06;102224.53;4994970;28;20034;-82
2022/11/27 04:49:33;;;;;;;6.00;2.90;;;;;;;4.42;96.02;102217.59;4995421;28;20117;-83
2022/11/27 04:51:59;;;;;;;6.13;2.90;;;;;;;4.44;96.15;102208.25;4994509;28;20038;-82
2022/11/27 04:54:24;;;;;;;5.82;2.92;;;;;;;4.46;96.52;102209.13;4995081;28;20030;-83
2022/11/27 04:56:50;;;;;;;4.60;2.95;;;;;;;4.43;96.43;102194.50;4995300;28;20380;-83
2022/11/27 04:59:15;;;;;;;4.63;2.58;;;;;;;4.42;96.43;102187.59;4994104;28;20041;-82
2022/11/27 05:01:40;;;;;;;7.25;3.00;;;;;;;4.46;96.21;102186.88;4994938;28;20559;-82
2022/11/27 05:04:06;;;;;;;4.95;3.00;;;;;;;4.44;96.48;102188.53;4994419;28;20031;-82
2022/11/27 05:06:31;;;;;;;4.60;2.83;;;;;;;4.42;96.24;102192.75;4995248;28;20027;-83
2022/11/27 05:09:00;;;;;;;4.93;2.90;;;;;;;4.42;95.71;102177.31;4995334;28;20117;-83
2022/11/27 05:11:29;;;;;;;5.70;2.75;;;;;;;4.44;95.79;102173.09;4994236;28;20106;-83
2022/11/27 05:16:39;;;;;;;5.85;3.15;;;;;;;4.44;95.73;102167.09;4995361;28;20052;-83
2022/11/27 05:19:04;;;;;;;6.30;2.83;;;;;;;4.47;95.45;102169.75;4994217;28;20457;-82
2022/11/27 05:21:29;;;;;;;5.93;2.65;;;;;;;4.44;95.75;102165.41;4994520;28;20081;-83
2022/11/27 05:23:55;;;;;;;4.75;2.55;;;;;;;4.45;95.75;102161.09;4995132;28;20022;-82
2022/11/27 05:26:20;;;;;;;4.75;2.47;;;;;;;4.47;95.68;102164.59;4993871;28;20053;-82
2022/11/27 05:28:45;;;;;;;3.95;2.20;;;;;;;4.48;95.78;102162.09;4994681;28;20046;-82
2022/11/27 05:31:10;;;;;;;4.88;2.50;;;;;;;4.50;95.69;102154.44;4994447;28;20035;-82
2022/11/27 05:33:36;;;;;;;3.65;2.53;;;;;;;4.51;95.17;102157.84;4994170;28;20034;-82
2022/11/27 05:36:01;;;;;;;2.80;2.00;;;;;;;4.50;95.79;102149.28;4994915;28;20026;-82
2022/11/27 05:38:26;;;;;;;8.50;2.90;;;;;;;4.53;95.34;102148.50;4994157;28;20051;-82
2022/11/27 05:40:51;;;;;;;7.10;2.75;;;;;;;4.53;95.55;102151.97;4993793;28;20029;-82
2022/11/27 05:43:17;;;;;;;4.50;2.30;;;;;;;4.52;95.78;102147.63;4994303;28;20360;-82
2022/11/27 05:45:42;;;;;;;6.15;2.90;;;;;;;4.56;96.09;102148.59;4994470;28;20102;-82
2022/11/27 05:48:07;;;;;;;6.20;2.40;;;;;;;4.53;95.28;102149.38;4993440;28;20379;-82
2022/11/27 05:50:33;;;;;;;4.10;2.35;;;;;;;4.53;95.54;102146.81;4994570;28;20081;-82
2022/11/27 05:52:58;;;;;;;4.22;2.30;;;;;;;4.54;95.57;102140.84;4993890;28;20138;-82
2022/11/27 05:55:23;;;;;;;4.55;2.30;;;;;;;4.54;95.56;102135.72;4993344;28;20026;-82
2022/11/27 05:57:48;;;;;;;5.53;2.53;;;;;;;4.60;95.43;102130.75;4994284;28;20072;-82
2022/11/27 06:00:14;;;;;;;5.07;2.30;;;;;;;4.53;95.52;102118.53;4993122;28;20509;-82
2022/11/27 06:02:40;;;;;;;5.65;2.47;;;;;;;4.55;95.20;102126.28;4993561;28;20488;-83
2022/11/27 06:05:05;;;;;;;5.97;2.90;;;;;;;4.56;95.55;102117.75;4993980;28;20518;-82
2022/11/27 06:07:31;;;;;;;5.15;2.60;;;;;;;4.57;95.62;102119.50;4992920;28;20033;-82
2022/11/27 06:09:56;;;;;;;5.07;2.53;;;;;;;4.57;95.62;102119.50;4994145;28;20081;-83
2022/11/27 06:12:21;;;;;;;4.47;2.58;;;;;;;4.56;95.76;102121.19;4993697;28;20049;-82
2022/11/27 06:14:47;;;;;;;4.43;2.40;;;;;;;4.57;95.68;102116.94;4993236;28;20802;-82
2022/11/27 06:17:15;;;;;;;3.97;2.38;;;;;;;4.57;95.35;102111.78;4993813;28;20498;-82
2022/11/27 06:19:41;;;;;;;4.80;2.50;;;;;;;4.58;95.42;102108.38;4994031;28;20032;-82
2022/11/27 06:22:06;;;;;;;5.18;2.40;;;;;;;4.59;95.37;102108.41;4992555;28;20141;-83
2022/11/27 06:24:32;;;;;;;4.78;2.60;;;;;;;4.60;95.34;102109.31;4993786;28;20113;-83
2022/11/27 06:26:57;;;;;;;4.85;2.58;;;;;;;4.61;95.85;102111.91;4993501;28;20034;-83
2022/11/27 06:29:22;;;;;;;3.45;2.40;;;;;;;4.62;95.70;102099.91;4992799;28;20459;-82
2022/11/27 06:31:48;;;;;;;4.07;2.38;;;;;;;4.62;95.97;102100.81;4993735;28;20018;-82
2022/11/27 06:34:13;;;;;;;4.18;2.60;;;;;;;4.68;95.55;102106.94;4993155;28;20053;-82
2022/11/27 06:36:41;;;;;;;4.63;2.40;;;;;;;4.67;95.60;102105.22;4993000;28;20036;-83
2022/11/27 06:39:09;;;;;;;4.43;2.28;;;;;;;4.69;95.79;102108.69;4993111;28;20464;-82
2022/11/27 06:41:35;;;;;;;4.13;2.03;;;;;;;4.69;95.91;102112.16;4993633;28;20109;-83
2022/11/27 06:44:01;;;;;;;2.90;2.10;;;;;;;4.71;95.94;102110.50;4992745;28;20444;-83
2022/11/27 06:46:28;;;;;;;2.42;1.80;;;;;;;4.72;96.06;102116.50;4993481;28;20030;-83
2022/11/27 06:48:54;;;;;;;2.45;1.83;;;;;;;4.72;96.12;102113.94;4993778;28;20387;-83
2022/11/27 06:51:22;;;;;;;2.83;1.90;;;;;;;4.73;96.20;102110.53;4992537;28;20027;-83
2022/11/27 06:53:49;;;;;;;2.58;1.92;;;;;;;4.73;96.29;102097.69;4973951;28;20514;-83
2022/11/27 06:56:18;;;;;;;3.35;2.05;;;;;;;4.73;96.19;102098.53;4973650;28;20027;-83
2022/11/27 06:58:44;;;;;;;2.90;1.90;;;;;;;4.72;96.22;102099.38;4973297;28;20027;-83
2022/11/27 07:01:15;;;;;;;3.33;2.20;;;;;;;4.72;96.10;102099.38;4973537;28;20081;-83
2022/11/27 07:03:40;;;;;;;3.05;2.20;;;;;;;4.71;96.31;102091.59;4969611;28;20038;-83
2022/11/27 07:06:08;;;;;;;3.60;2.50;;;;;;;4.70;96.61;102095.00;4973731;28;20379;-83
2022/11/27 07:08:34;;;;;;;5.72;2.50;;;;;;;4.69;96.49;102089.00;4973827;28;20027;-83
2022/11/27 07:11:08;;;;;;;7.80;3.03;;;;;;;4.72;96.42;102090.78;4974203;28;20031;-82
2022/11/27 07:13:33;;;;;;;3.97;2.70;;;;;;;4.70;96.52;102077.00;4978050;28;20420;-82
2022/11/27 07:16:03;;;;;;;4.82;2.63;;;;;;;4.69;96.98;102070.13;4978013;28;20061;-82
2022/11/27 07:18:33;;;;;;;5.20;2.67;;;;;;;4.68;96.79;102064.13;4988277;28;20109;-85
2022/11/27 07:20:58;;;;;;;4.18;2.60;;;;;;;4.68;96.60;102058.97;4997312;28;20072;-86
2022/11/27 07:23:23;;;;;;;6.50;3.10;;;;;;;4.69;96.82;102060.72;4996852;28;20068;-84
2022/11/27 07:25:48;;;;;;;4.80;2.58;;;;;;;4.64;97.17;102059.69;4996456;28;20026;-84
2022/11/27 07:28:14;;;;;;;5.68;2.53;;;;;;;4.62;97.17;102053.63;4996757;28;20109;-84
2022/11/27 07:30:39;;;;;;;6.13;2.60;;;;;;;4.64;97.27;102054.56;4996860;28;20056;-84
2022/11/27 07:33:04;;;;;;;4.45;2.63;;;;;;;4.62;97.02;102053.63;4995248;28;20058;-84
2022/11/27 07:35:30;;;;;;;7.22;3.60;;;;;;;4.65;97.14;102046.00;4996013;28;20030;-84
2022/11/27 07:37:55;;;;;;;6.57;3.33;;;;;;;4.58;97.88;102049.25;4995805;28;20126;-83
2022/11/27 07:40:20;;;;;;;7.70;3.33;;;;;;;4.56;97.62;102044.03;4995404;28;20037;-84
2022/11/27 07:42:46;;;;;;;5.78;3.00;;;;;;;4.56;97.79;102049.19;4996795;28;20022;-84
2022/11/27 07:45:11;;;;;;;6.90;3.13;;;;;;;4.55;97.67;102044.00;4996670;28;20034;-82
2022/11/27 07:47:37;;;;;;;7.20;3.33;;;;;;;4.54;98.50;102052.53;4995535;28;20146;-84
2022/11/27 07:50:06;;;;;;;5.27;2.93;;;;;;;4.53;98.61;102038.84;4996463;28;20053;-84
2022/11/27 07:52:33;;;;;;;7.65;3.20;;;;;;;4.55;98.09;102031.16;4997114;28;20352;-85
2022/11/27 07:54:58;;;;;;;5.22;2.90;;;;;;;4.54;98.41;102026.84;4996693;28;20022;-85
2022/11/27 07:57:23;;;;;;;5.22;3.10;;;;;;;4.57;98.02;102021.78;4997770;28;20042;-85
2022/11/27 07:59:49;;;;;;;6.93;3.50;;;;;;;4.67;97.64;102013.50;4997287;28;20118;-85
2022/11/27 08:02:14;;;;;;;10.85;3.75;;;;;;;4.59;98.23;102003.00;4995097;28;20030;-85
2022/11/27 08:04:39;;;;;;;8.73;3.88;;;;;;;4.53;99.05;102007.09;4996431;28;20026;-85
2022/11/27 08:07:05;;;;;;;8.27;3.53;;;;;;;4.52;98.68;101998.53;4995425;28;20022;-87
2022/11/27 08:09:30;;;;;;;6.03;3.42;;;;;;;4.53;99.03;101991.66;4996200;28;20069;-83
2022/11/27 08:11:55;;;;;;;9.00;3.90;;;;;;;4.60;98.09;102001.31;4996062;28;20105;-84
2022/11/27 08:14:21;;;;;;;7.88;3.53;;;;;;;4.54;98.78;102001.13;4995414;28;20031;-83
2022/11/27 08:16:46;;;;;;;7.18;3.90;;;;;;;4.56;98.74;102000.34;4996305;28;20505;-86
2022/11/27 08:19:12;;;;;;;8.60;3.70;;;;;;;4.56;98.40;101992.63;4995926;28;20026;-86
2022/11/27 08:21:37;;;;;;;9.80;3.72;;;;;;;4.56;98.65;102005.47;4995288;28;20378;-84
2022/11/27 08:24:03;;;;;;;8.90;3.38;;;;;;;4.56;98.61;101995.19;4995754;28;20030;-84
2022/11/27 08:26:28;;;;;;;8.18;3.67;;;;;;;4.60;98.77;102001.31;4995662;28;20387;-85
2022/11/27 08:28:55;;;;;;;7.55;3.67;;;;;;;4.59;99.98;101995.28;4995694;28;20117;-85
2022/11/27 08:31:20;;;;;;;7.05;3.53;;;;;;;4.60;99.48;101997.03;4996216;28;20559;-86
2022/11/27 08:33:46;;;;;;;9.65;4.13;;;;;;;4.66;99.15;102001.47;4996121;28;20101;-87
2022/11/27 08:36:12;;;;;;;8.63;3.95;;;;;;;4.66;99.33;101993.75;4995391;28;20532;-91
2022/11/27 08:38:46;;;;;;;5.95;3.47;;;;;;;4.67;99.65;101995.50;4995576;28;20038;-83
2022/11/27 08:41:12;;;;;;;7.43;3.70;;;;;;;4.69;99.54;101991.28;4995478;28;20046;-82
2022/11/27 08:43:37;;;;;;;7.90;3.70;;;;;;;4.71;99.69;101999.03;4994129;28;20030;-82
2022/11/27 08:46:04;;;;;;;5.40;3.25;;;;;;;4.74;99.84;102004.25;4995164;28;20034;-82
2022/11/27 08:48:35;;;;;;;5.50;3.20;;;;;;;4.77;100.00;101996.63;4995429;28;20030;-82
2022/11/27 08:51:06;;;;;;;7.22;3.35;;;;;;;4.78;99.19;101986.38;4993815;28;20033;-82
2022/11/27 08:53:32;;;;;;;7.05;3.60;;;;;;;4.81;99.91;101982.16;4995417;28;20038;-81
2022/11/27 08:56:08;;;;;;;10.38;4.30;;;;;;;4.85;99.87;101991.69;4995618;28;20442;-81
2022/11/27 08:58:33;;;;;;;9.38;3.95;;;;;;;4.85;100.00;101995.13;4994736;28;20442;-81
2022/11/27 09:01:08;;;;;;;10.35;4.85;;;;;;;4.86;99.98;101996.88;4995331;28;20054;-82
2022/11/27 09:03:34;;;;;;;9.27;4.20;;;;;;;4.87;99.80;102000.31;4993542;28;20045;-83
2022/11/27 09:05:59;;;;;;;8.05;3.70;;;;;;;4.89;99.46;101998.66;4995573;28;20101;-83
2022/11/27 09:08:24;;;;;;;6.97;3.60;;;;;;;4.91;99.89;101994.44;4995095;28;20497;-82
2022/11/27 09:10:49;;;;;;;6.18;3.40;;;;;;;4.94;100.00;101997.94;4993973;28;20033;-83
2022/11/27 09:13:15;;;;;;;5.72;3.33;;;;;;;4.98;100.00;101996.31;4994984;28;20483;-82
2022/11/27 09:15:40;;;;;;;7.45;3.50;;;;;;;4.99;100.00;101992.91;4995180;28;20022;-83
2022/11/27 09:18:05;;;;;;;8.57;4.03;;;;;;;5.03;100.00;101986.16;4993665;28;20030;-82
2022/11/27 09:20:31;;;;;;;9.43;4.10;;;;;;;5.04;100.00;101991.34;4995122;28;20030;-82
2022/11/27 09:22:59;;;;;;;6.93;3.78;;;;;;;5.08;100.00;101987.16;4994869;28;20114;-83
2022/11/27 09:25:24;;;;;;;7.72;3.63;;;;;;;5.12;100.00;101990.66;4992927;28;20081;-84
2022/11/27 09:27:49;;;;;;;6.72;3.30;;;;;;;5.14;100.00;101986.44;4994716;28;20030;-83
2022/11/27 09:30:15;;;;;;;6.97;3.45;;;;;;;5.17;100.00;101989.09;4994576;28;20101;-83
2022/11/27 09:32:40;;;;;;;6.28;3.38;;;;;;;5.17;100.00;101982.25;4994003;28;20027;-84
2022/11/27 09:35:06;;;;;;;8.73;4.32;;;;;;;5.20;100.00;101987.47;4993060;28;20027;-83
2022/11/27 09:37:31;;;;;;;8.07;3.90;;;;;;;5.24;100.00;101981.53;4994277;28;20034;-83
2022/11/27 09:39:58;;;;;;;8.68;4.30;;;;;;;5.26;100.00;101990.19;4993804;28;20046;-83
2022/11/27 09:42:48;;;;;;;7.10;3.83;;;;;;;5.28;100.00;101990.25;4994236;28;20038;-83
2022/11/27 09:45:16;;;;;;;5.97;3.55;;;;;;;5.31;100.00;101981.72;4994337;28;20293;-84
2022/11/27 09:47:49;;;;;;;4.60;3.10;;;;;;;5.34;100.00;101981.81;4993897;28;20033;-83
2022/11/27 09:50:23;;;;;;;6.40;3.25;;;;;;;5.40;100.00;101984.50;4994351;28;20027;-83
2022/11/27 09:53:24;;;;;;;7.28;3.63;;;;;;;5.39;100.00;101986.22;4993696;28;20026;-83
2022/11/27 09:55:52;;;;;;;11.77;5.13;;;;;;;5.47;100.00;101977.81;4983675;28;20038;-83
2022/11/27 09:58:23;;;;;;;12.70;5.65;;;;;;;5.40;100.00;101964.78;4994023;28;20023;-83
2022/11/27 10:00:48;;;;;;;11.85;5.30;;;;;;;5.42;100.00;101967.41;4993294;28;20026;-83
2022/11/27 10:03:18;;;;;;;11.40;5.20;;;;;;;5.44;100.00;101965.75;4993887;28;20057;-84
2022/11/27 10:06:09;;;;;;;11.90;5.25;;;;;;;5.44;100.00;101955.44;4993977;28;20014;-83
2022/11/27 10:09:06;;;;;;;11.45;4.93;;;;;;;5.48;100.00;101956.38;4993218;28;20034;-83
2022/11/27 10:11:54;;;;;;;11.93;5.20;;;;;;;5.48;100.00;101948.66;4994284;28;20041;-84
2022/11/27 10:14:49;;;;;;;10.38;4.63;;;;;;;5.50;100.00;101944.41;4993031;28;20030;-84
2022/11/27 10:17:33;;;;;;;7.55;4.10;;;;;;;5.52;100.00;101942.72;4993806;28;20034;-84
2022/11/27 10:20:31;;;;;;;10.30;4.22;;;;;;;5.52;100.00;101946.19;4994039;28;20372;-84
2022/11/27 10:23:21;;;;;;;8.57;4.25;;;;;;;5.55;100.00;101923.09;4975863;28;20070;-84
2022/11/27 10:25:51;;;;;;;10.40;4.63;;;;;;;5.59;100.00;101925.72;4994100;28;20027;-84
2022/11/27 10:28:34;;;;;;;9.55;4.30;;;;;;;5.60;100.00;101923.19;4992913;28;20113;-84
2022/11/27 10:31:11;;;;;;;7.90;4.05;;;;;;;5.62;100.00;101924.09;4993639;28;20030;-84
2022/11/27 10:33:49;;;;;;;8.27;4.15;;;;;;;5.68;100.00;101920.78;4994219;28;20054;-84
2022/11/27 10:36:27;;;;;;;9.45;4.47;;;;;;;5.65;100.00;101923.28;4993100;28;20360;-84
2022/11/27 10:38:55;;;;;;;12.20;5.10;;;;;;;5.67;100.00;101914.75;4993557;28;20372;-84
2022/11/27 10:41:28;;;;;;;12.45;5.15;;;;;;;5.68;100.00;101902.78;4993462;28;20041;-84
2022/11/27 10:43:56;;;;;;;11.57;5.57;;;;;;;5.73;99.94;101903.72;4993510;28;20371;-85
2022/11/27 10:46:32;;;;;;;11.38;5.65;;;;;;;5.76;100.00;101896.06;4993690;28;20472;-84
2022/11/27 10:48:58;;;;;;;10.93;4.88;;;;;;;5.71;100.00;101895.97;4992746;28;20027;-84
2022/11/27 10:51:30;;;;;;;11.98;5.68;;;;;;;5.87;99.65;101901.44;4993321;28;20037;-84
2022/11/27 10:53:59;;;;;;;11.82;5.65;;;;;;;5.78;100.00;101890.94;4993428;28;20097;-85
2022/11/27 10:56:43;;;;;;;12.23;5.35;;;;;;;5.78;100.00;101881.53;4992662;28;20026;-84
2022/11/27 10:59:14;;;;;;;11.35;5.20;;;;;;;5.79;100.00;101883.25;4993483;28;20034;-84
2022/11/27 11:01:52;;;;;;;10.70;5.00;;;;;;;5.80;100.00;101882.41;4993533;28;20045;-84
2022/11/27 11:04:25;;;;;;;13.18;5.50;;;;;;;5.86;100.00;101879.09;4992321;28;20026;-84
2022/11/27 11:06:50;;;;;;;12.10;5.43;;;;;;;5.83;100.00;101866.16;4993649;28;20037;-84
2022/11/27 11:09:31;;;;;;;13.70;6.28;;;;;;;5.85;100.00;101869.63;4993365;28;20026;-84
2022/11/27 11:12:19;;;;;;;11.95;5.40;;;;;;;5.86;100.00;101871.34;4992731;28;20023;-84
2022/11/27 11:14:55;;;;;;;10.73;5.20;;;;;;;5.87;100.00;101857.63;4993344;28;20117;-84
2022/11/27 11:17:36;;;;;;;12.52;5.63;;;;;;;5.86;100.00;101864.50;4992307;28;20440;-83
2022/11/27 11:20:21;;;;;;;11.85;5.38;;;;;;;5.88;100.00;101851.66;4993398;28;20035;-85
2022/11/27 11:22:47;;;;;;;10.57;4.68;;;;;;;5.90;100.00;101849.13;4992238;28;20483;-87
2022/11/27 11:25:18;;;;;;;8.93;4.53;;;;;;;5.92;100.00;101844.84;4992208;28;20033;-85
2022/11/27 11:27:46;;;;;;;8.98;4.63;;;;;;;5.98;100.00;101838.09;4993219;28;20289;-84
2022/11/27 11:30:27;;;;;;;10.15;4.82;;;;;;;6.00;100.00;101835.63;4993033;28;20031;-83
2022/11/27 11:33:00;;;;;;;12.43;5.40;;;;;;;6.01;100.00;101833.06;4992504;28;20038;-85
2022/11/27 11:35:33;;;;;;;10.93;5.13;;;;;;;6.01;100.00;101821.91;4992563;28;20023;-84
2022/11/27 11:38:01;;;;;;;10.52;5.03;;;;;;;6.01;100.00;101819.31;4991924;28;20046;-83
2022/11/27 11:40:31;;;;;;;9.20;4.85;;;;;;;6.02;100.00;101811.59;4992219;28;20454;-83